Time;durP1;ratioP1;P1;durP2;ratioP2;P2;SDS_P1;SDS_P2;PMS_P1;PMS_P2;Temp;Humidity;BMP_temperature;BMP_pressure;BME280_temperature;BME280_humidity;BME280_pressure;Samples;Min_cycle;Max_cycle;Signal;HPM_P1;HPM_P2
2021/03/30 00:01:20;;;;;;;14.90;10.60;;;11.10;68.10;;;;;;4937023;29;20493;-88
2021/03/30 00:03:47;;;;;;;14.17;9.60;;;11.00;68.40;;;;;;4935813;29;20453;-88
2021/03/30 00:06:13;;;;;;;14.80;9.70;;;10.80;68.80;;;;;;4936101;29;20433;-87
2021/03/30 00:08:40;;;;;;;17.77;10.23;;;10.70;69.50;;;;;;4938002;29;20477;-86
2021/03/30 00:11:07;;;;;;;12.00;9.43;;;10.60;70.40;;;;;;4938531;29;20824;-87
2021/03/30 00:13:34;;;;;;;16.03;10.87;;;10.50;70.50;;;;;;4934137;29;20450;-87
2021/03/30 00:16:03;;;;;;;12.30;11.00;;;10.50;71.10;;;;;;4938029;29;20619;-86
2021/03/30 00:18:30;;;;;;;13.77;8.70;;;10.60;71.20;;;;;;4943993;29;20456;-86
2021/03/30 00:20:58;;;;;;;15.33;10.70;;;10.70;71.20;;;;;;4952574;29;20462;-85
2021/03/30 00:23:25;;;;;;;14.13;9.90;;;10.60;70.70;;;;;;4929848;29;20533;-86
2021/03/30 00:25:51;;;;;;;13.00;10.00;;;10.60;71.00;;;;;;4940096;29;20473;-86
2021/03/30 00:28:17;;;;;;;14.20;10.80;;;10.40;71.60;;;;;;4939491;29;20810;-87
2021/03/30 00:30:43;;;;;;;18.53;11.20;;;10.30;72.20;;;;;;4938662;29;20470;-87
2021/03/30 00:33:10;;;;;;;14.70;10.70;;;10.30;72.60;;;;;;4949127;29;20453;-87
2021/03/30 00:35:38;;;;;;;17.77;10.83;;;10.20;73.20;;;;;;4953902;29;20470;-85
2021/03/30 00:38:04;;;;;;;13.07;10.80;;;10.10;73.50;;;;;;4949623;29;20500;-87
2021/03/30 00:40:31;;;;;;;10.80;9.70;;;10.00;73.90;;;;;;4921332;29;20859;-86
2021/03/30 00:42:57;;;;;;;14.33;9.00;;;10.00;74.20;;;;;;4919592;29;20494;-86
2021/03/30 00:45:23;;;;;;;18.93;10.23;;;9.90;76.20;;;;;;4919450;29;20537;-86
2021/03/30 00:47:50;;;;;;;13.13;8.73;;;10.00;74.10;;;;;;4919934;29;20509;-87
2021/03/30 00:50:20;;;;;;;17.20;8.90;;;10.00;74.00;;;;;;4933141;29;20458;-86
2021/03/30 00:52:48;;;;;;;13.37;9.27;;;9.90;75.20;;;;;;4938531;29;21019;-86
2021/03/30 00:55:15;;;;;;;10.53;8.43;;;9.90;75.20;;;;;;4940820;29;20480;-86
2021/03/30 00:57:42;;;;;;;13.60;9.67;;;9.90;75.70;;;;;;4953221;29;20904;-87
2021/03/30 01:00:11;;;;;;;12.17;8.17;;;9.80;76.00;;;;;;4949365;29;20449;-87
2021/03/30 01:02:37;;;;;;;11.70;9.40;;;9.80;76.30;;;;;;4947470;29;20493;-86
2021/03/30 01:05:04;;;;;;;14.40;9.60;;;9.80;76.70;;;;;;4921595;29;20486;-87
2021/03/30 01:07:30;;;;;;;17.17;9.73;;;9.80;77.10;;;;;;4920682;29;20435;-89
2021/03/30 01:10:15;;;;;;;12.03;9.10;;;9.70;77.10;;;;;;4927528;29;20798;-87
2021/03/30 01:12:56;;;;;;;13.30;9.50;;;9.70;77.20;;;;;;4918716;29;20446;-87
2021/03/30 01:15:32;;;;;;;11.40;8.40;;;9.60;77.70;;;;;;4921146;29;20474;-87
2021/03/30 01:18:07;;;;;;;11.40;9.13;;;9.70;77.80;;;;;;4934893;29;20448;-87
2021/03/30 01:21:11;;;;;;;11.00;8.67;;;9.60;78.10;;;;;;4929497;29;20454;-87
2021/03/30 01:24:04;;;;;;;13.63;9.33;;;9.50;78.60;;;;;;4919528;29;20499;-89
2021/03/30 01:26:55;;;;;;;10.80;8.67;;;9.40;79.30;;;;;;4912965;29;20454;-86
2021/03/30 01:29:38;;;;;;;13.70;9.37;;;9.50;79.50;;;;;;4919216;29;20442;-87
2021/03/30 01:32:09;;;;;;;9.90;8.60;;;9.50;79.50;;;;;;4920513;29;20545;-86
2021/03/30 01:34:37;;;;;;;14.03;10.00;;;9.40;79.90;;;;;;4920477;29;20475;-87
2021/03/30 01:37:04;;;;;;;11.70;8.90;;;9.40;80.20;;;;;;4924244;29;20449;-87
2021/03/30 01:39:31;;;;;;;12.33;9.40;;;9.40;79.90;;;;;;4934075;29;20474;-86
2021/03/30 01:41:59;;;;;;;14.73;8.83;;;9.40;80.50;;;;;;4929121;29;20486;-86
2021/03/30 01:44:27;;;;;;;13.33;9.00;;;9.40;80.90;;;;;;4934397;29;20466;-86
2021/03/30 01:46:54;;;;;;;13.53;8.90;;;9.30;81.20;;;;;;4931687;29;20470;-87
2021/03/30 01:49:22;;;;;;;12.03;10.17;;;9.30;81.20;;;;;;4936445;29;20461;-88
2021/03/30 01:51:51;;;;;;;14.50;9.40;;;9.30;81.50;;;;;;4937740;29;20936;-85
2021/03/30 01:54:18;;;;;;;14.00;9.83;;;9.30;81.40;;;;;;4937328;29;20462;-86
2021/03/30 01:56:46;;;;;;;15.47;9.40;;;9.30;81.40;;;;;;4937012;29;20453;-87
2021/03/30 01:59:14;;;;;;;15.80;10.73;;;9.30;81.60;;;;;;4938044;29;20479;-86
2021/03/30 02:01:44;;;;;;;18.20;11.23;;;9.30;81.40;;;;;;4937050;29;20474;-87
2021/03/30 02:04:12;;;;;;;14.47;9.67;;;9.30;81.20;;;;;;4925379;29;20483;-88
2021/03/30 02:06:40;;;;;;;10.23;8.60;;;9.40;80.90;;;;;;4928168;29;20487;-86
2021/03/30 02:09:11;;;;;;;11.57;9.10;;;9.40;80.70;;;;;;4925933;29;20970;-87
2021/03/30 02:11:43;;;;;;;12.50;10.80;;;9.40;80.80;;;;;;4928158;29;20443;-87
2021/03/30 02:14:10;;;;;;;17.70;9.97;;;9.30;81.00;;;;;;4926784;29;20869;-87
2021/03/30 02:16:45;;;;;;;12.23;10.00;;;9.30;80.90;;;;;;4937209;29;20447;-87
2021/03/30 02:19:16;;;;;;;12.20;10.20;;;9.30;81.20;;;;;;4932344;29;20485;-89
2021/03/30 02:21:45;;;;;;;14.50;9.80;;;9.20;81.40;;;;;;4954532;28;20465;-87
2021/03/30 02:24:13;;;;;;;14.10;9.90;;;9.20;81.60;;;;;;4960771;28;20493;-85
2021/03/30 02:26:43;;;;;;;14.07;10.00;;;9.20;81.70;;;;;;4961140;28;20426;-86
2021/03/30 02:29:14;;;;;;;15.20;11.40;;;9.10;82.10;;;;;;4960832;28;20429;-89
2021/03/30 02:31:43;;;;;;;15.30;10.30;;;9.10;82.30;;;;;;4960737;28;20418;-86
2021/03/30 02:34:12;;;;;;;12.40;10.10;;;9.00;82.20;;;;;;4958436;28;20454;-87
2021/03/30 02:36:40;;;;;;;13.73;10.30;;;9.10;82.10;;;;;;4940465;29;20979;-88
2021/03/30 02:39:08;;;;;;;11.97;9.53;;;9.10;82.10;;;;;;4948430;28;20453;-88
2021/03/30 02:41:36;;;;;;;13.37;9.97;;;9.00;82.20;;;;;;4946608;29;20489;-88
2021/03/30 02:44:07;;;;;;;12.80;9.57;;;8.90;82.60;;;;;;4938015;29;20477;-90
2021/03/30 02:46:35;;;;;;;14.13;9.60;;;8.90;83.00;;;;;;4932818;29;20556;-88
2021/03/30 02:49:03;;;;;;;13.13;9.57;;;8.80;83.20;;;;;;4929133;29;20466;-88
2021/03/30 02:51:31;;;;;;;16.00;10.23;;;8.80;83.40;;;;;;4934271;29;20536;-85
2021/03/30 02:53:59;;;;;;;13.30;10.27;;;8.80;84.10;;;;;;4947364;29;20478;-84
2021/03/30 02:56:26;;;;;;;16.70;9.97;;;8.80;83.90;;;;;;4949603;29;20548;-84
2021/03/30 02:58:53;;;;;;;14.93;11.57;;;8.80;84.00;;;;;;4944688;29;20462;-83
2021/03/30 03:01:21;;;;;;;15.53;10.27;;;8.70;84.00;;;;;;4951202;29;20449;-86
2021/03/30 03:03:48;;;;;;;13.93;10.43;;;8.70;84.90;;;;;;4950184;29;20453;-84
2021/03/30 03:06:16;;;;;;;13.63;10.83;;;8.70;84.30;;;;;;4989485;23;20508;-84
2021/03/30 03:08:43;;;;;;;13.40;9.83;;;8.70;84.10;;;;;;4976631;28;20432;-84
2021/03/30 03:11:12;;;;;;;10.03;9.00;;;8.60;84.00;;;;;;4988404;28;20471;-85
2021/03/30 03:13:39;;;;;;;11.70;9.63;;;8.60;84.20;;;;;;4991260;28;20436;-83
2021/03/30 03:16:07;;;;;;;15.33;8.40;;;8.60;84.20;;;;;;5001435;28;20452;-85
2021/03/30 03:18:34;;;;;;;11.00;8.47;;;8.50;84.30;;;;;;5001509;28;20495;-84
2021/03/30 03:21:02;;;;;;;11.13;8.90;;;8.50;84.70;;;;;;5001974;28;20440;-84
2021/03/30 03:23:30;;;;;;;11.17;8.90;;;8.50;84.90;;;;;;5000277;28;20478;-85
2021/03/30 03:25:57;;;;;;;10.33;8.43;;;8.40;85.00;;;;;;4998302;28;20490;-85
2021/03/30 03:28:24;;;;;;;12.80;9.47;;;8.40;85.20;;;;;;4989206;28;20428;-84
2021/03/30 03:30:50;;;;;;;11.47;10.27;;;8.40;85.40;;;;;;5001241;28;20474;-85
2021/03/30 03:33:16;;;;;;;12.50;9.70;;;8.30;85.50;;;;;;4989265;28;20443;-86
2021/03/30 03:35:59;;;;;;;12.00;8.77;;;8.30;85.70;;;;;;4989432;28;20448;-85
2021/03/30 03:38:25;;;;;;;10.13;8.53;;;8.30;85.70;;;;;;4999534;28;20436;-85
2021/03/30 03:40:52;;;;;;;10.33;8.70;;;8.30;85.60;;;;;;4999702;28;20438;-85
2021/03/30 03:43:18;;;;;;;10.30;9.20;;;8.30;85.70;;;;;;4998365;28;20487;-85
2021/03/30 03:45:44;;;;;;;10.60;8.20;;;8.20;85.90;;;;;;4997007;28;20456;-85
2021/03/30 03:48:11;;;;;;;9.50;8.50;;;8.20;85.90;;;;;;4995345;28;20443;-86
2021/03/30 03:50:37;;;;;;;14.00;8.43;;;8.20;86.10;;;;;;4991983;28;20436;-85
2021/03/30 03:53:04;;;;;;;15.23;9.90;;;8.20;86.40;;;;;;4977341;28;21011;-86
2021/03/30 03:55:31;;;;;;;10.97;8.70;;;8.20;86.60;;;;;;4967385;28;20474;-86
2021/03/30 03:58:02;;;;;;;12.83;9.10;;;8.20;86.50;;;;;;4962618;28;20445;-85
2021/03/30 04:00:29;;;;;;;11.67;8.23;;;8.20;87.00;;;;;;4961216;28;20449;-90
2021/03/30 04:03:01;;;;;;;14.03;8.83;;;8.10;86.90;;;;;;4959358;28;20527;-87
2021/03/30 04:05:36;;;;;;;11.13;7.90;;;8.10;87.30;;;;;;4957617;28;20499;-87
2021/03/30 04:08:08;;;;;;;16.07;8.27;;;8.00;87.40;;;;;;4970363;28;20466;-86
2021/03/30 04:10:36;;;;;;;11.90;8.07;;;8.00;87.50;;;;;;4959584;28;20459;-87
2021/03/30 04:13:07;;;;;;;13.13;7.93;;;8.00;87.70;;;;;;4959895;28;20957;-86
2021/03/30 04:15:34;;;;;;;14.90;8.27;;;8.00;88.00;;;;;;4965240;28;20511;-86
2021/03/30 04:18:01;;;;;;;10.73;8.07;;;7.90;88.20;;;;;;4972828;28;20897;-86
2021/03/30 04:22:58;;;;;;;11.57;7.70;;;7.90;87.80;;;;;;4939813;29;20873;-86
2021/03/30 04:25:25;;;;;;;10.07;8.17;;;7.90;87.60;;;;;;4940688;29;20863;-86
2021/03/30 04:27:52;;;;;;;15.60;9.00;;;7.90;87.80;;;;;;4941255;29;20807;-86
2021/03/30 04:30:20;;;;;;;20.40;9.90;;;7.90;88.00;;;;;;4939824;29;20453;-86
2021/03/30 04:32:47;;;;;;;13.47;10.07;;;7.80;88.20;;;;;;4922058;29;20435;-86
2021/03/30 04:35:14;;;;;;;12.77;8.90;;;7.80;88.50;;;;;;4922815;29;20944;-86
2021/03/30 04:37:41;;;;;;;17.30;10.30;;;7.80;88.70;;;;;;4922845;29;20454;-87
2021/03/30 04:40:10;;;;;;;15.27;9.80;;;7.70;88.90;;;;;;4921097;29;20458;-87
2021/03/30 04:42:36;;;;;;;14.93;10.63;;;7.60;89.30;;;;;;4920817;29;21164;-87
2021/03/30 04:45:03;;;;;;;13.40;9.63;;;7.60;89.60;;;;;;4937957;29;20433;-86
2021/03/30 04:47:30;;;;;;;14.00;10.27;;;7.60;89.70;;;;;;4960151;29;20456;-86
2021/03/30 04:49:56;;;;;;;12.60;9.47;;;7.60;90.30;;;;;;4931056;29;20451;-86
2021/03/30 04:52:23;;;;;;;17.03;10.50;;;7.60;90.10;;;;;;4921902;29;20498;-88
2021/03/30 04:54:49;;;;;;;15.03;9.40;;;7.50;90.30;;;;;;4920082;29;20455;-86
2021/03/30 04:57:15;;;;;;;13.00;10.00;;;7.40;90.40;;;;;;4919807;29;20451;-86
2021/03/30 04:59:41;;;;;;;14.87;10.63;;;7.50;90.70;;;;;;4920348;29;20450;-87
2021/03/30 05:02:07;;;;;;;13.03;9.40;;;7.50;90.70;;;;;;4919796;29;20559;-88
2021/03/30 05:04:36;;;;;;;12.00;10.20;;;7.40;90.70;;;;;;4922370;29;20458;-88
2021/03/30 05:07:02;;;;;;;12.47;10.00;;;7.40;90.90;;;;;;4921851;29;20451;-86
2021/03/30 05:09:28;;;;;;;13.50;10.53;;;7.40;91.00;;;;;;4919165;29;20513;-86
2021/03/30 05:11:55;;;;;;;19.03;10.90;;;7.30;91.00;;;;;;4922456;29;20478;-86
2021/03/30 05:14:21;;;;;;;12.97;9.70;;;7.30;91.00;;;;;;4927051;29;20451;-87
2021/03/30 05:16:47;;;;;;;11.43;8.40;;;7.30;91.20;;;;;;4921347;29;20463;-88
2021/03/30 05:22:16;;;;;;;17.93;10.60;;;7.30;91.20;;;;;;4933112;29;20600;-87
2021/03/30 05:25:15;;;;;;;;;;;;;;;;;;;;;
2021/03/30 05:28:06;;;;;;;16.20;9.47;;;7.30;91.40;;;;;;4944087;29;20950;-88
2021/03/30 05:36:37;;;;;;;9.43;8.30;;;7.30;91.10;;;;;;4928333;29;20439;-87
2021/03/30 05:39:42;;;;;;;12.20;9.03;;;7.30;91.10;;;;;;4920577;29;20562;-87
2021/03/30 05:42:42;;;;;;;14.47;10.83;;;7.40;91.10;;;;;;4915003;29;20493;-88
2021/03/30 05:45:42;;;;;;;12.90;8.83;;;7.40;91.10;;;;;;4920555;29;20979;-88
2021/03/30 05:48:25;;;;;;;13.50;9.80;;;7.40;91.30;;;;;;4920779;29;20463;-87
2021/03/30 05:50:51;;;;;;;16.87;11.33;;;7.40;91.30;;;;;;4920937;29;20505;-88
2021/03/30 05:53:20;;;;;;;19.13;9.90;;;7.40;91.10;;;;;;4928732;29;20477;-88
2021/03/30 05:55:48;;;;;;;14.17;10.03;;;7.50;91.20;;;;;;4938741;29;20445;-87
2021/03/30 05:58:17;;;;;;;20.83;10.00;;;7.50;91.10;;;;;;4924400;29;20447;-87
2021/03/30 06:00:45;;;;;;;13.17;9.90;;;7.60;90.90;;;;;;4926152;29;20466;-87
2021/03/30 06:03:16;;;;;;;15.73;9.47;;;7.70;90.60;;;;;;4920963;29;20486;-88
2021/03/30 06:05:47;;;;;;;14.20;9.53;;;7.70;90.40;;;;;;4934740;29;20455;-87
2021/03/30 06:08:39;;;;;;;9.53;8.53;;;7.80;90.30;;;;;;4926922;29;20983;-87
2021/03/30 06:11:24;;;;;;;10.10;8.30;;;7.80;90.10;;;;;;4930495;29;20469;-87
2021/03/30 06:14:09;;;;;;;14.80;10.40;;;7.90;90.00;;;;;;4945053;29;20457;-87
2021/03/30 06:16:38;;;;;;;12.23;8.40;;;8.00;90.00;;;;;;4941875;29;20532;-88
2021/03/30 06:19:10;;;;;;;14.87;8.73;;;8.00;89.60;;;;;;4939311;29;20487;-88
2021/03/30 06:21:39;;;;;;;13.07;9.70;;;8.00;89.40;;;;;;4939738;29;21113;-87
2021/03/30 06:24:27;;;;;;;21.53;9.60;;;8.00;89.40;;;;;;4941745;29;20430;-87
2021/03/30 06:26:56;;;;;;;18.00;10.87;;;8.10;89.10;;;;;;4937763;29;20466;-87
2021/03/30 06:29:34;;;;;;;16.50;11.10;;;8.10;89.00;;;;;;4924153;29;20459;-86
2021/03/30 06:32:03;;;;;;;18.63;10.57;;;8.20;89.00;;;;;;4939249;29;20486;-87
2021/03/30 06:34:30;;;;;;;19.77;10.47;;;8.20;88.80;;;;;;4939275;29;20452;-86
2021/03/30 06:36:56;;;;;;;18.40;11.63;;;8.30;88.90;;;;;;4943042;29;20463;-88
2021/03/30 06:39:34;;;;;;;23.93;13.07;;;8.40;88.50;;;;;;4941542;29;20489;-88
2021/03/30 06:42:03;;;;;;;16.10;12.13;;;8.50;88.60;;;;;;4939595;29;20517;-87
2021/03/30 06:44:35;;;;;;;17.80;13.27;;;8.60;88.20;;;;;;4935584;29;20442;-87
2021/03/30 06:47:06;;;;;;;17.70;11.20;;;8.60;87.70;;;;;;4939389;29;20443;-87
2021/03/30 06:49:34;;;;;;;14.80;10.20;;;8.80;87.40;;;;;;4936913;29;20466;-87
2021/03/30 06:52:15;;;;;;;18.90;12.17;;;8.80;86.90;;;;;;4923123;29;20797;-87
2021/03/30 07:01:30;;;;;;;15.33;10.70;;;9.20;85.40;;;;;;4935864;29;20474;-87
2021/03/30 07:03:57;;;;;;;24.23;10.60;;;9.30;84.30;;;;;;4937636;29;20489;-88
2021/03/30 07:10:03;;;;;;;11.40;8.67;;;9.50;83.40;;;;;;4862405;29;20562;-85
2021/03/30 07:19:04;;;;;;;22.60;10.53;;;9.80;80.90;;;;;;4869041;29;20456;-86
2021/03/30 07:22:07;;;;;;;42.80;12.00;;;10.00;79.80;;;;;;4852693;29;20541;-88
2021/03/30 07:24:48;;;;;;;64.13;14.77;;;10.10;79.10;;;;;;4871560;29;20578;-87
2021/03/30 07:34:19;;;;;;;12.70;8.83;;;12.50;71.20;;;;;;4833604;29;20456;-87
2021/03/30 07:36:53;;;;;;;10.13;8.40;;;13.00;68.10;;;;;;4870285;29;20919;-88
2021/03/30 07:39:24;;;;;;;8.97;7.43;;;13.40;66.60;;;;;;4918474;29;20501;-89
2021/03/30 07:41:52;;;;;;;10.30;8.40;;;13.60;64.40;;;;;;4923819;29;20497;-88
2021/03/30 07:45:30;;;;;;;9.23;8.30;;;13.80;63.40;;;;;;4922696;29;20437;-89
2021/03/30 07:52:15;;;;;;;8.97;7.33;;;15.20;60.30;;;;;;4919998;29;20463;-87
2021/03/30 07:55:23;;;;;;;9.77;7.63;;;15.70;57.90;;;;;;4922208;29;20446;-88
2021/03/30 07:58:10;;;;;;;9.80;7.93;;;15.90;57.70;;;;;;4924229;29;20543;-90
2021/03/30 08:01:06;;;;;;;11.70;7.20;;;16.10;56.80;;;;;;4925798;29;20477;-87
2021/03/30 08:03:35;;;;;;;8.50;7.60;;;16.90;55.40;;;;;;4906152;29;20470;-88
2021/03/30 08:30:18;;;;;;;11.43;7.30;;;17.50;51.90;;;;;;4884347;29;20472;-89
2021/03/30 08:33:41;;;;;;;14.00;7.73;;;17.60;52.10;;;;;;4846130;29;20465;-89
2021/03/30 08:37:12;;;;;;;15.60;7.27;;;18.30;51.10;;;;;;4853552;29;20624;-88
2021/03/30 08:46:35;;;;;;;8.07;6.50;;;20.40;46.00;;;;;;4913142;29;20445;-87
2021/03/30 09:16:09;;;;;;;13.40;8.17;;;27.00;37.50;;;;;;5577064;23;20508;-89
2021/03/30 09:18:37;;;;;;;12.27;8.00;;;27.50;35.60;;;;;;4978421;28;20433;-90
2021/03/30 09:21:09;;;;;;;8.53;7.67;;;28.50;35.10;;;;;;4977424;28;20484;-90
2021/03/30 09:23:37;;;;;;;8.57;7.17;;;29.20;33.70;;;;;;4954274;28;20592;-90
2021/03/30 09:26:10;;;;;;;10.13;7.97;;;29.30;33.00;;;;;;4961384;29;20482;-90
2021/03/30 09:28:37;;;;;;;12.33;8.20;;;30.30;32.70;;;;;;4967689;28;20450;-91
2021/03/30 09:31:03;;;;;;;9.40;7.50;;;30.30;31.80;;;;;;4976552;28;20529;-90
2021/03/30 09:33:30;;;;;;;11.13;8.33;;;30.00;31.40;;;;;;4969712;28;20448;-87
2021/03/30 09:36:00;;;;;;;11.87;8.30;;;29.70;32.40;;;;;;4963224;28;20502;-91
2021/03/30 09:38:27;;;;;;;10.97;8.83;;;31.30;30.40;;;;;;4970953;29;20429;-90
2021/03/30 09:40:53;;;;;;;10.87;8.20;;;31.30;29.70;;;;;;4967782;29;20471;-88
2021/03/30 09:43:20;;;;;;;14.30;7.70;;;31.00;29.10;;;;;;4955399;29;20489;-89
2021/03/30 09:45:47;;;;;;;10.30;7.10;;;29.90;29.40;;;;;;4943088;29;20446;-89
2021/03/30 09:48:15;;;;;;;10.23;7.40;;;30.20;28.60;;;;;;4958966;29;20460;-90
2021/03/30 09:50:47;;;;;;;7.80;7.03;;;30.60;28.40;;;;;;4960140;29;20461;-90
2021/03/30 09:53:13;;;;;;;8.90;7.90;;;31.10;28.30;;;;;;4959627;29;20456;-90
2021/03/30 09:55:42;;;;;;;11.67;7.57;;;32.20;27.90;;;;;;4959197;29;20866;-90
2021/03/30 09:58:10;;;;;;;10.20;7.07;;;32.60;28.00;;;;;;4941835;29;20472;-90
2021/03/30 10:00:42;;;;;;;7.73;7.10;;;34.50;26.80;;;;;;4945166;29;20537;-90
2021/03/30 10:03:11;;;;;;;8.30;6.90;;;35.10;26.20;;;;;;4955401;29;20485;-90
2021/03/30 10:05:42;;;;;;;7.90;7.30;;;35.30;25.60;;;;;;4960313;29;20446;-90
2021/03/30 10:08:19;;;;;;;10.43;6.63;;;34.80;25.70;;;;;;4960853;28;20449;-89
2021/03/30 10:10:48;;;;;;;7.23;6.37;;;35.20;25.90;;;;;;4959984;29;20462;-89
2021/03/30 10:13:26;;;;;;;7.37;6.43;;;36.20;26.00;;;;;;4971428;28;20894;-90
2021/03/30 10:15:53;;;;;;;8.87;6.73;;;35.80;25.00;;;;;;4974505;29;20452;-90
2021/03/30 10:18:22;;;;;;;7.60;6.87;;;35.30;25.40;;;;;;4978870;28;20433;-90
2021/03/30 10:20:51;;;;;;;7.70;6.90;;;34.00;26.00;;;;;;4979276;28;20484;-94
2021/03/30 10:23:22;;;;;;;9.97;7.57;;;35.20;25.80;;;;;;4972574;28;20488;-92
2021/03/30 10:25:49;;;;;;;7.37;6.67;;;36.80;24.70;;;;;;4979405;28;20479;-91
2021/03/30 10:28:26;;;;;;;7.80;6.87;;;37.20;23.90;;;;;;4973539;28;20456;-93
2021/03/30 10:30:56;;;;;;;6.43;5.93;;;37.60;23.70;;;;;;4969533;28;20463;-93
2021/03/30 10:33:38;;;;;;;7.00;5.83;;;37.50;23.10;;;;;;4978957;29;20436;-92
2021/03/30 10:36:06;;;;;;;6.67;5.97;;;37.30;23.20;;;;;;4971851;29;20437;-90
2021/03/30 10:38:33;;;;;;;9.33;5.70;;;37.60;22.60;;;;;;4959896;28;20451;-91
2021/03/30 10:41:08;;;;;;;7.33;5.60;;;38.40;22.50;;;;;;4959127;29;20547;-88
2021/03/30 10:43:34;;;;;;;8.07;6.73;;;39.30;22.00;;;;;;4959081;29;20546;-88
2021/03/30 10:46:02;;;;;;;7.20;6.70;;;39.90;21.70;;;;;;4957931;29;20455;-90
2021/03/30 10:48:28;;;;;;;6.13;5.63;;;40.40;20.90;;;;;;4958222;29;20441;-89
2021/03/30 10:50:55;;;;;;;8.00;6.20;;;40.30;20.50;;;;;;4958989;29;20546;-90
2021/03/30 10:53:22;;;;;;;7.70;7.00;;;39.90;20.40;;;;;;4967654;29;20444;-89
2021/03/30 10:55:50;;;;;;;6.17;5.67;;;40.20;20.40;;;;;;4955564;29;20453;-89
2021/03/30 10:58:17;;;;;;;6.10;5.20;;;39.50;20.10;;;;;;4956198;29;20444;-89
2021/03/30 11:00:44;;;;;;;8.40;7.70;;;39.00;19.90;;;;;;4956057;29;20472;-89
2021/03/30 11:03:10;;;;;;;7.67;6.20;;;38.50;20.40;;;;;;4957703;29;20807;-89
2021/03/30 11:05:37;;;;;;;9.60;6.10;;;38.90;20.80;;;;;;4958931;29;20531;-90
2021/03/30 11:08:04;;;;;;;5.83;5.33;;;39.10;20.00;;;;;;4959021;29;20448;-90
2021/03/30 11:10:33;;;;;;;7.87;6.53;;;39.40;19.70;;;;;;4958083;29;20468;-90
2021/03/30 11:13:00;;;;;;;6.10;5.50;;;39.40;19.90;;;;;;4971483;29;20433;-88
2021/03/30 11:15:26;;;;;;;5.77;5.17;;;40.80;19.20;;;;;;4978572;28;20531;-89
2021/03/30 11:17:53;;;;;;;6.87;5.93;;;41.00;18.50;;;;;;4962911;29;20940;-88
2021/03/30 11:20:19;;;;;;;6.30;5.80;;;40.50;18.80;;;;;;4966441;29;20524;-89
2021/03/30 11:22:49;;;;;;;6.40;5.70;;;40.30;19.20;;;;;;4964506;29;20535;-88
2021/03/30 11:25:15;;;;;;;6.23;5.67;;;39.80;19.40;;;;;;4957270;29;20472;-89
2021/03/30 11:27:42;;;;;;;6.77;6.00;;;40.10;19.20;;;;;;4958534;29;20445;-88
2021/03/30 11:30:14;;;;;;;6.67;5.40;;;40.50;18.80;;;;;;4958801;29;21015;-90
2021/03/30 11:32:45;;;;;;;5.93;5.43;;;40.20;18.90;;;;;;4960457;29;20445;-90
2021/03/30 11:35:15;;;;;;;7.50;5.70;;;38.50;19.50;;;;;;4979148;28;20448;-89
2021/03/30 11:37:52;;;;;;;7.43;6.20;;;37.70;20.50;;;;;;4982134;28;20440;-90
2021/03/30 11:40:19;;;;;;;6.40;5.80;;;38.70;20.20;;;;;;4982054;28;20475;-89
2021/03/30 11:42:46;;;;;;;6.00;5.10;;;38.20;20.50;;;;;;4974051;28;20477;-91
2021/03/30 11:45:14;;;;;;;6.17;5.67;;;38.60;19.70;;;;;;4982040;28;20437;-88
2021/03/30 11:47:41;;;;;;;6.60;6.00;;;40.10;19.50;;;;;;4977807;28;20437;-89
2021/03/30 11:50:08;;;;;;;6.13;5.60;;;41.10;19.00;;;;;;4967509;29;20456;-90
2021/03/30 11:52:34;;;;;;;7.23;5.30;;;40.90;17.90;;;;;;4969593;29;20445;-90
2021/03/30 11:55:01;;;;;;;7.20;6.10;;;40.40;18.40;;;;;;4965220;29;20452;-91
2021/03/30 11:57:27;;;;;;;5.70;5.27;;;40.40;18.50;;;;;;4961349;29;20445;-90
2021/03/30 11:59:54;;;;;;;9.57;6.80;;;40.30;18.40;;;;;;4959459;29;20846;-90
2021/03/30 12:02:21;;;;;;;9.67;6.27;;;40.50;18.30;;;;;;4959957;29;20527;-90
2021/03/30 12:04:47;;;;;;;9.20;5.00;;;41.60;18.50;;;;;;4959664;29;20441;-89
2021/03/30 12:07:14;;;;;;;8.33;6.40;;;42.00;18.00;;;;;;4959206;29;20452;-90
2021/03/30 12:09:40;;;;;;;6.53;5.87;;;42.00;17.50;;;;;;4959090;29;20441;-91
2021/03/30 12:12:07;;;;;;;6.30;5.73;;;42.70;17.40;;;;;;4961909;29;20488;-90
2021/03/30 12:14:33;;;;;;;7.07;6.30;;;42.40;16.80;;;;;;4962189;29;20476;-90
2021/03/30 12:16:59;;;;;;;6.83;5.60;;;41.40;16.50;;;;;;4962121;29;20524;-90
2021/03/30 12:19:26;;;;;;;7.07;6.30;;;41.60;17.30;;;;;;4960368;29;20441;-90
2021/03/30 12:21:54;;;;;;;6.00;5.50;;;41.10;17.20;;;;;;4976785;29;20465;-90
2021/03/30 12:24:20;;;;;;;7.37;5.97;;;41.40;17.50;;;;;;4971349;29;21283;-90
2021/03/30 12:26:47;;;;;;;6.10;5.50;;;40.50;17.70;;;;;;4960531;29;20447;-90
2021/03/30 12:29:13;;;;;;;6.33;5.80;;;40.20;17.90;;;;;;4958811;29;20507;-89
2021/03/30 12:31:39;;;;;;;6.60;5.47;;;40.10;17.60;;;;;;4958233;29;20469;-89
2021/03/30 12:34:06;;;;;;;6.90;5.93;;;38.80;18.10;;;;;;4957879;29;20444;-89
2021/03/30 12:36:33;;;;;;;6.67;5.87;;;37.60;18.60;;;;;;4958100;29;20442;-89
2021/03/30 12:38:59;;;;;;;6.30;5.80;;;37.50;18.70;;;;;;4959674;29;20449;-89
2021/03/30 12:41:26;;;;;;;7.83;5.30;;;36.70;18.60;;;;;;4973286;28;20449;-88
2021/03/30 12:43:52;;;;;;;6.73;6.10;;;37.60;19.00;;;;;;4980798;28;20483;-88
2021/03/30 12:46:18;;;;;;;5.90;5.40;;;38.50;18.60;;;;;;4968803;28;20803;-89
2021/03/30 12:48:45;;;;;;;7.00;6.40;;;38.90;18.10;;;;;;4961706;29;20517;-90
2021/03/30 12:51:13;;;;;;;7.33;6.57;;;40.60;17.80;;;;;;4976652;29;20557;-90
2021/03/30 12:53:40;;;;;;;6.67;6.17;;;41.00;17.60;;;;;;4968720;29;20479;-90
2021/03/30 12:56:06;;;;;;;6.00;5.50;;;40.30;17.00;;;;;;4957304;29;20449;-89
2021/03/30 12:58:33;;;;;;;5.83;5.30;;;40.80;17.40;;;;;;4959190;29;20453;-90
2021/03/30 13:00:59;;;;;;;6.73;6.10;;;41.40;17.30;;;;;;4958657;29;20469;-90
2021/03/30 13:03:25;;;;;;;6.20;5.70;;;42.30;16.60;;;;;;4959505;29;20472;-90
2021/03/30 13:05:51;;;;;;;6.30;5.70;;;41.20;16.40;;;;;;4971647;29;20452;-90
2021/03/30 13:08:17;;;;;;;7.43;5.40;;;40.50;16.80;;;;;;4973522;29;20445;-89
2021/03/30 13:10:44;;;;;;;5.47;5.03;;;38.90;17.40;;;;;;4979320;28;20457;-90
2021/03/30 13:13:11;;;;;;;7.20;5.77;;;37.80;18.30;;;;;;4975531;29;20437;-89
2021/03/30 13:15:37;;;;;;;6.80;6.20;;;38.60;18.10;;;;;;4965126;29;20509;-89
2021/03/30 13:18:04;;;;;;;6.27;5.70;;;38.40;18.10;;;;;;4976201;29;20449;-90
2021/03/30 13:20:30;;;;;;;6.00;5.50;;;38.20;18.20;;;;;;4964174;28;20461;-89
2021/03/30 13:22:57;;;;;;;6.43;5.60;;;38.40;18.20;;;;;;4960962;29;20484;-89
2021/03/30 13:25:30;;;;;;;5.70;5.17;;;39.40;18.00;;;;;;4973093;29;20445;-90
2021/03/30 13:27:58;;;;;;;6.73;5.57;;;39.60;17.20;;;;;;4963756;29;20830;-90
2021/03/30 13:30:25;;;;;;;5.77;4.97;;;38.60;16.90;;;;;;4977509;29;20504;-90
2021/03/30 13:32:51;;;;;;;7.90;4.97;;;39.00;17.80;;;;;;4974649;29;20548;-90
2021/03/30 13:35:17;;;;;;;5.87;5.20;;;39.50;17.00;;;;;;4959079;29;20465;-90
2021/03/30 13:37:43;;;;;;;6.70;6.10;;;39.00;18.10;;;;;;4958380;29;20954;-91
2021/03/30 13:40:11;;;;;;;6.13;5.10;;;39.80;18.00;;;;;;4958482;29;20461;-91
2021/03/30 13:42:37;;;;;;;6.80;6.20;;;39.90;17.80;;;;;;4958639;29;20507;-91
2021/03/30 13:45:06;;;;;;;5.37;4.97;;;39.60;17.70;;;;;;4957086;29;20509;-90
2021/03/30 13:47:32;;;;;;;5.13;4.63;;;38.50;18.00;;;;;;4956807;29;20452;-91
2021/03/30 13:49:59;;;;;;;6.87;4.60;;;37.40;18.30;;;;;;4957062;29;20532;-90
2021/03/30 13:52:25;;;;;;;6.10;5.50;;;35.30;19.10;;;;;;4957714;29;20472;-91
2021/03/30 13:54:51;;;;;;;5.90;5.40;;;34.50;20.70;;;;;;4978482;28;20969;-89
2021/03/30 13:57:17;;;;;;;6.07;4.10;;;34.70;20.60;;;;;;4967102;28;20452;-91
2021/03/30 13:59:44;;;;;;;5.33;4.50;;;35.40;20.60;;;;;;4962897;29;20461;-91
2021/03/30 14:02:11;;;;;;;5.70;5.20;;;35.50;20.40;;;;;;4961521;29;20854;-91
2021/03/30 14:04:37;;;;;;;5.50;4.03;;;34.90;19.40;;;;;;4960905;29;20492;-90
2021/03/30 14:07:04;;;;;;;5.83;4.90;;;32.80;20.00;;;;;;4960321;29;20523;-91
2021/03/30 14:09:32;;;;;;;6.00;4.60;;;31.90;21.00;;;;;;4970146;28;20826;-90
2021/03/30 14:12:01;;;;;;;5.23;4.77;;;30.30;21.90;;;;;;4966375;29;20491;-89
2021/03/30 14:14:28;;;;;;;7.00;4.80;;;29.10;22.90;;;;;;4978436;28;20505;-90
2021/03/30 14:16:59;;;;;;;4.70;4.17;;;28.50;23.70;;;;;;4988997;23;20491;-86
2021/03/30 14:19:31;;;;;;;4.87;4.43;;;28.50;24.00;;;;;;4980572;28;20454;-83
2021/03/30 14:21:59;;;;;;;4.03;3.73;;;29.20;24.20;;;;;;4989754;28;20447;-84
2021/03/30 14:24:46;;;;;;;5.93;4.07;;;29.80;24.10;;;;;;4990300;28;20511;-84
2021/03/30 14:27:13;;;;;;;5.03;3.40;;;30.30;23.00;;;;;;4980087;28;20472;-85
2021/03/30 14:29:51;;;;;;;4.97;4.37;;;30.40;23.20;;;;;;4979340;28;20443;-85
2021/03/30 14:32:19;;;;;;;5.77;3.70;;;30.60;23.10;;;;;;4973910;28;20945;-85
2021/03/30 14:34:48;;;;;;;5.33;4.07;;;30.90;22.90;;;;;;4974980;28;20482;-84
2021/03/30 14:37:17;;;;;;;5.40;4.20;;;30.90;22.50;;;;;;4979990;28;20528;-85
2021/03/30 14:39:44;;;;;;;7.27;4.40;;;31.00;22.30;;;;;;4982140;28;20452;-84